createdAt,value
2022-12-01T00:01:20.101Z,7.67
2022-12-01T00:03:47.248Z,7.61
2022-12-01T00:06:17.820Z,7.75
2022-12-01T00:09:06.692Z,7.68
2022-12-01T00:11:35.567Z,7.59
2022-12-01T00:14:02.995Z,7.70
2022-12-01T00:16:30.355Z,7.51
2022-12-01T00:18:58.155Z,7.48
2022-12-01T00:21:26.970Z,7.56
2022-12-01T00:23:56.860Z,7.56
2022-12-01T00:26:25.250Z,7.62
2022-12-01T00:28:55.616Z,7.71
2022-12-01T00:31:22.953Z,7.73
2022-12-01T00:33:49.860Z,7.64
2022-12-01T00:36:16.904Z,7.78
2022-12-01T00:38:43.773Z,7.75
2022-12-01T00:41:10.646Z,7.83
2022-12-01T00:43:37.472Z,7.90
2022-12-01T00:46:04.490Z,7.90
2022-12-01T00:48:31.411Z,7.94
2022-12-01T00:50:58.293Z,8.01
2022-12-01T00:53:25.141Z,8.07
2022-12-01T00:55:53.970Z,8.00
2022-12-01T00:58:21.876Z,7.99
2022-12-01T01:00:49.130Z,8.00
2022-12-01T01:03:15.979Z,7.97
2022-12-01T01:05:43.893Z,8.03
2022-12-01T01:08:13.168Z,7.95
2022-12-01T01:10:46.143Z,7.99
2022-12-01T01:13:14.339Z,8.01
2022-12-01T01:15:41.672Z,8.04
2022-12-01T01:18:09.775Z,8.00
2022-12-01T01:20:36.697Z,8.07
2022-12-01T01:23:03.669Z,7.98
2022-12-01T01:25:32.694Z,8.03
2022-12-01T01:27:59.527Z,8.06
2022-12-01T01:30:26.359Z,8.07
2022-12-01T01:32:53.262Z,8.07
2022-12-01T01:35:20.136Z,8.14
2022-12-01T01:37:46.965Z,8.14
2022-12-01T01:40:13.817Z,8.12
2022-12-01T01:42:40.649Z,8.07
2022-12-01T01:45:21.307Z,7.99
2022-12-01T01:47:50.319Z,8.05
2022-12-01T01:50:21.842Z,8.05
2022-12-01T01:52:57.330Z,8.07
2022-12-01T01:55:25.007Z,8.07
2022-12-01T01:57:51.920Z,8.06
2022-12-01T02:00:20.992Z,8.04
2022-12-01T02:02:49.177Z,8.00
2022-12-01T02:05:30.995Z,8.02
2022-12-01T02:07:59.620Z,7.92
2022-12-01T02:11:12.706Z,7.81
2022-12-01T02:14:14.588Z,7.96
2022-12-01T02:17:09.532Z,7.97
2022-12-01T02:19:48.508Z,7.95
2022-12-01T02:23:01.869Z,7.88
2022-12-01T02:26:22.190Z,7.91
2022-12-01T02:29:25.238Z,7.80
2022-12-01T02:32:32.694Z,7.86
2022-12-01T02:35:25.111Z,7.40
2022-12-01T02:38:15.044Z,7.39
2022-12-01T02:41:01.712Z,7.55
2022-12-01T02:43:51.068Z,7.59
2022-12-01T02:46:34.407Z,7.52
2022-12-01T02:49:10.404Z,7.57
2022-12-01T02:51:40.224Z,7.57
2022-12-01T02:54:08.531Z,7.58
2022-12-01T02:56:35.388Z,7.65
2022-12-01T02:59:02.245Z,7.62
2022-12-01T03:01:59.853Z,7.54
2022-12-01T03:05:00.637Z,7.39
2022-12-01T03:07:54.666Z,7.31
2022-12-01T03:10:45.795Z,7.31
2022-12-01T03:13:27.480Z,7.33
2022-12-01T03:16:16.603Z,7.29
2022-12-01T03:19:14.831Z,7.32
2022-12-01T03:21:52.266Z,7.21
2022-12-01T03:24:22.871Z,7.31
2022-12-01T03:26:56.985Z,7.29
2022-12-01T03:29:50.051Z,7.17
2022-12-01T03:32:33.823Z,7.30
2022-12-01T03:35:08.956Z,7.27
2022-12-01T03:38:40.269Z,7.34
2022-12-01T03:41:16.855Z,7.38
2022-12-01T03:43:51.905Z,7.22
2022-12-01T03:46:53.026Z,7.15
2022-12-01T03:49:21.703Z,7.15
2022-12-01T03:52:35.950Z,7.09
2022-12-01T03:55:21.169Z,7.09
2022-12-01T03:58:13.905Z,7.09
2022-12-01T04:00:41.866Z,6.80
2022-12-01T04:03:16.936Z,6.93
2022-12-01T04:05:43.934Z,7.08
2022-12-01T04:08:10.911Z,7.02
2022-12-01T04:10:37.886Z,7.08
2022-12-01T04:13:04.820Z,7.10
2022-12-01T04:15:31.696Z,7.07
2022-12-01T04:17:58.573Z,7.13
2022-12-01T04:20:25.447Z,7.19
2022-12-01T04:22:52.272Z,7.20
2022-12-01T04:25:19.152Z,7.21
2022-12-01T04:27:46.071Z,7.25
2022-12-01T04:30:13.382Z,7.28
2022-12-01T04:32:42.711Z,7.32
2022-12-01T04:35:12.322Z,7.33
2022-12-01T04:37:39.923Z,7.34
2022-12-01T04:40:08.079Z,7.24
2022-12-01T04:42:35.065Z,7.03
2022-12-01T04:45:02.075Z,7.14
2022-12-01T04:47:29.081Z,7.23
2022-12-01T04:49:55.992Z,7.07
2022-12-01T04:52:22.847Z,7.17
2022-12-01T04:54:49.707Z,6.91
2022-12-01T04:57:16.600Z,7.03
2022-12-01T04:59:43.525Z,7.14
2022-12-01T05:02:10.526Z,7.02
2022-12-01T05:04:41.243Z,7.01
2022-12-01T05:07:08.526Z,6.92
2022-12-01T05:09:35.601Z,6.56
2022-12-01T05:12:02.406Z,6.75
2022-12-01T05:14:29.316Z,6.38
2022-12-01T05:16:58.055Z,6.64
2022-12-01T05:19:43.557Z,6.68
2022-12-01T05:22:10.413Z,6.72
2022-12-01T05:24:37.294Z,6.77
2022-12-01T05:27:04.299Z,6.69
2022-12-01T05:29:32.975Z,6.78
2022-12-01T05:32:00.201Z,6.68
2022-12-01T05:34:27.212Z,6.70
2022-12-01T05:36:54.135Z,6.54
2022-12-01T05:39:21.011Z,6.43
2022-12-01T05:41:47.821Z,6.59
2022-12-01T05:44:14.670Z,6.70
2022-12-01T05:46:41.568Z,6.64
2022-12-01T05:49:08.452Z,6.67
2022-12-01T05:51:35.462Z,6.55
2022-12-01T05:54:02.416Z,6.58
2022-12-01T05:56:29.218Z,6.52
2022-12-01T05:58:56.139Z,6.58
2022-12-01T06:01:23.273Z,6.58
2022-12-01T06:03:50.194Z,6.12
2022-12-01T06:06:17.537Z,5.85
2022-12-01T06:08:44.435Z,5.89
2022-12-01T06:11:11.581Z,5.74
2022-12-01T06:13:38.766Z,6.09
2022-12-01T06:16:07.264Z,6.19
2022-12-01T06:18:37.425Z,6.26
2022-12-01T06:21:06.422Z,6.23
2022-12-01T06:23:33.969Z,6.28
2022-12-01T06:26:00.928Z,6.26
2022-12-01T06:28:27.887Z,6.25
2022-12-01T06:31:01.010Z,6.28
2022-12-01T06:33:30.192Z,6.11
2022-12-01T06:36:03.033Z,6.27
2022-12-01T06:38:37.209Z,6.20
2022-12-01T06:41:05.410Z,6.29
2022-12-01T06:43:32.667Z,6.20
2022-12-01T06:46:02.098Z,6.14
2022-12-01T06:48:30.568Z,6.18
2022-12-01T06:50:59.250Z,6.20
2022-12-01T06:53:28.270Z,6.31
2022-12-01T06:56:03.591Z,6.13
2022-12-01T06:58:31.189Z,6.16
2022-12-01T07:00:59.024Z,6.21
2022-12-01T07:03:26.146Z,6.18
2022-12-01T07:06:00.890Z,6.13
2022-12-01T07:08:29.869Z,6.17
2022-12-01T07:11:04.957Z,6.26
2022-12-01T07:13:33.882Z,6.18
2022-12-01T07:16:05.822Z,6.20
2022-12-01T07:18:33.311Z,6.22
2022-12-01T07:21:10.341Z,6.23
2022-12-01T07:23:37.206Z,5.99
2022-12-01T07:26:11.650Z,5.87
2022-12-01T07:28:38.692Z,5.89
2022-12-01T07:31:11.048Z,5.97
2022-12-01T07:33:38.475Z,5.92
2022-12-01T07:36:06.389Z,6.10
2022-12-01T07:38:34.788Z,6.01
2022-12-01T07:41:08.447Z,6.07
2022-12-01T07:43:36.778Z,6.06
2022-12-01T07:46:09.197Z,6.08
2022-12-01T07:48:37.739Z,6.04
2022-12-01T07:51:18.379Z,6.01
2022-12-01T07:53:47.417Z,6.22
2022-12-01T07:56:14.561Z,6.31
2022-12-01T07:58:42.076Z,6.39
2022-12-01T08:01:20.393Z,6.26
2022-12-01T08:03:55.765Z,6.33
2022-12-01T08:06:24.130Z,6.24
2022-12-01T08:08:51.858Z,6.26
2022-12-01T08:11:25.178Z,6.42
2022-12-01T08:13:53.454Z,6.33
2022-12-01T08:16:22.811Z,6.42
2022-12-01T08:18:50.495Z,6.28
2022-12-01T08:21:21.132Z,6.22
2022-12-01T08:23:48.843Z,6.28
2022-12-01T08:26:18.546Z,6.33
2022-12-01T08:28:46.739Z,6.35
2022-12-01T08:31:20.193Z,6.34
2022-12-01T08:33:49.969Z,6.31
2022-12-01T08:36:18.436Z,6.25
2022-12-01T08:38:47.072Z,6.34
2022-12-01T08:41:15.103Z,6.53
2022-12-01T08:44:00.454Z,6.61
2022-12-01T08:46:32.289Z,6.59
2022-12-01T08:48:59.290Z,6.70
2022-12-01T08:51:26.945Z,6.76
2022-12-01T08:53:57.027Z,6.62
2022-12-01T08:56:37.943Z,6.71
2022-12-01T08:59:05.012Z,6.70
2022-12-01T09:01:32.989Z,6.56
2022-12-01T09:04:05.657Z,6.62
2022-12-01T09:06:39.671Z,6.40
2022-12-01T09:09:09.503Z,6.29
2022-12-01T09:11:36.344Z,6.45
2022-12-01T09:14:03.531Z,6.40
2022-12-01T09:16:30.752Z,6.30
2022-12-01T09:18:57.913Z,6.33
2022-12-01T09:21:28.396Z,6.37
2022-12-01T09:23:55.242Z,6.45
2022-12-01T09:26:23.053Z,6.62
2022-12-01T09:28:54.968Z,6.66
2022-12-01T09:31:23.460Z,6.66
2022-12-01T09:33:59.145Z,6.58
2022-12-01T09:36:26.378Z,6.81
2022-12-01T09:38:53.663Z,6.90
2022-12-01T09:41:45.294Z,6.84
2022-12-01T09:44:34.095Z,6.91
2022-12-01T09:47:13.350Z,7.13
2022-12-01T09:50:06.550Z,7.20
2022-12-01T09:52:47.698Z,7.13
2022-12-01T09:55:17.963Z,6.93
2022-12-01T09:57:49.168Z,6.95
2022-12-01T10:00:29.977Z,7.10
2022-12-01T10:03:32.928Z,7.01
2022-12-01T10:09:28.514Z,7.28
2022-12-01T10:12:05.797Z,7.27
2022-12-01T10:14:36.013Z,7.22
2022-12-01T10:17:24.331Z,7.25
2022-12-01T10:20:20.167Z,7.30
2022-12-01T10:23:20.426Z,7.23
2022-12-01T10:25:59.327Z,7.20
2022-12-01T10:28:51.497Z,7.20
2022-12-01T10:31:50.305Z,7.28
2022-12-01T10:34:37.771Z,7.23
2022-12-01T10:37:04.910Z,7.32
2022-12-01T10:39:41.917Z,7.10
2022-12-01T10:42:22.126Z,7.21
2022-12-01T10:44:50.622Z,7.03
2022-12-01T10:47:24.822Z,7.03
2022-12-01T10:49:52.781Z,6.93
2022-12-01T10:52:41.560Z,7.04
2022-12-01T10:55:29.297Z,7.13
2022-12-01T10:57:58.527Z,7.05
2022-12-01T11:03:23.532Z,7.19
2022-12-01T11:05:58.063Z,7.09
2022-12-01T11:08:37.088Z,7.20
2022-12-01T11:11:04.707Z,7.38
2022-12-01T11:13:35.488Z,7.47
2022-12-01T11:16:05.322Z,7.65
2022-12-01T11:18:38.533Z,7.67
2022-12-01T11:21:26.620Z,7.67
2022-12-01T11:23:55.940Z,7.64
2022-12-01T11:26:31.044Z,7.60
2022-12-01T11:29:37.882Z,7.63
2022-12-01T11:32:18.435Z,7.83
2022-12-01T11:35:20.116Z,7.79
2022-12-01T11:38:21.204Z,7.48
2022-12-01T11:40:48.716Z,7.43
2022-12-01T11:43:34.302Z,7.18
2022-12-01T11:46:08.077Z,7.30
2022-12-01T11:48:36.643Z,7.38
2022-12-01T11:51:31.871Z,7.62
2022-12-01T11:54:25.478Z,7.62
2022-12-01T11:59:41.144Z,7.45
2022-12-01T12:03:18.721Z,7.51
2022-12-01T12:06:31.927Z,7.41
2022-12-01T12:09:02.183Z,7.34
2022-12-01T12:12:02.105Z,7.22
2022-12-01T12:14:35.016Z,7.13
2022-12-01T12:17:15.100Z,7.25
2022-12-01T12:20:27.917Z,7.39
2022-12-01T12:23:27.101Z,7.38
2022-12-01T12:26:25.423Z,6.97
2022-12-01T12:29:22.934Z,6.97
2022-12-01T12:32:16.916Z,7.11
2022-12-01T12:35:02.970Z,7.07
2022-12-01T12:37:54.465Z,7.10
2022-12-01T12:40:42.319Z,7.27
2022-12-01T12:43:44.186Z,7.10
2022-12-01T12:46:16.803Z,7.31
2022-12-01T12:49:26.065Z,7.10
2022-12-01T12:52:08.938Z,6.92
2022-12-01T12:54:41.620Z,6.95
2022-12-01T12:57:31.677Z,7.01
2022-12-01T13:00:12.675Z,6.99
2022-12-01T13:03:06.110Z,6.99
2022-12-01T13:05:49.369Z,6.89
2022-12-01T13:08:40.489Z,7.00
2022-12-01T13:11:24.770Z,6.96
2022-12-01T13:14:02.831Z,6.86
2022-12-01T13:16:44.512Z,6.95
2022-12-01T13:19:35.638Z,6.94
2022-12-01T13:22:04.339Z,6.94
2022-12-01T13:24:31.538Z,7.02
2022-12-01T13:27:05.274Z,7.04
2022-12-01T13:29:43.910Z,6.91
2022-12-01T13:32:36.636Z,6.98
2022-12-01T13:35:29.590Z,7.00
2022-12-01T13:38:26.352Z,7.11
2022-12-01T13:41:33.354Z,7.05
2022-12-01T13:44:24.991Z,7.10
2022-12-01T13:46:59.712Z,7.17
2022-12-01T13:49:47.159Z,7.18
2022-12-01T13:52:23.616Z,7.10
2022-12-01T13:55:09.282Z,7.19
2022-12-01T13:57:49.309Z,7.18
2022-12-01T14:00:32.123Z,7.16
2022-12-01T14:03:19.597Z,7.19
2022-12-01T14:05:57.124Z,7.12
2022-12-01T14:08:37.813Z,7.14
2022-12-01T14:11:22.452Z,7.00
2022-12-01T14:14:00.834Z,6.95
2022-12-01T14:16:53.338Z,7.00
2022-12-01T14:19:44.856Z,6.66
2022-12-01T14:22:35.117Z,6.82
2022-12-01T14:25:25.781Z,6.75
2022-12-01T14:27:59.665Z,6.80
2022-12-01T14:30:41.990Z,6.77
2022-12-01T14:33:39.664Z,6.70
2022-12-01T14:36:21.855Z,6.84
2022-12-01T14:38:53.622Z,6.92
2022-12-01T14:41:45.816Z,6.77
2022-12-01T14:44:33.527Z,6.74
2022-12-01T14:47:11.283Z,6.90
2022-12-01T14:49:52.721Z,6.74
2022-12-01T14:52:28.572Z,6.65
2022-12-01T14:54:59.648Z,6.51
2022-12-01T14:57:36.763Z,6.40
2022-12-01T15:00:23.169Z,6.34
2022-12-01T15:03:16.577Z,6.40
2022-12-01T15:05:44.290Z,6.37
2022-12-01T15:11:26.005Z,6.28
2022-12-01T15:13:55.499Z,6.10
2022-12-01T15:16:30.866Z,6.26
2022-12-01T15:18:57.969Z,6.13
2022-12-01T15:21:31.457Z,6.10
2022-12-01T15:24:24.835Z,6.05
2022-12-01T15:27:03.444Z,6.12
2022-12-01T15:29:45.474Z,5.96
2022-12-01T15:32:16.632Z,5.99
2022-12-01T15:34:48.362Z,6.02
2022-12-01T15:37:25.106Z,6.02
2022-12-01T15:40:00.812Z,6.10
2022-12-01T15:42:39.501Z,6.02
2022-12-01T15:45:15.379Z,5.97
2022-12-01T15:47:45.093Z,5.94
2022-12-01T15:50:39.704Z,6.00
2022-12-01T15:53:33.371Z,5.92
2022-12-01T15:56:05.683Z,5.96
2022-12-01T15:58:43.243Z,5.88
2022-12-01T16:01:20.819Z,5.85
2022-12-01T16:03:59.218Z,5.83
2022-12-01T16:06:32.073Z,5.83
2022-12-01T16:09:07.128Z,5.93
2022-12-01T16:11:34.259Z,5.86
2022-12-01T16:14:08.104Z,5.91
2022-12-01T16:16:45.096Z,5.90
2022-12-01T16:19:11.900Z,5.92
2022-12-01T16:21:52.303Z,5.87
2022-12-01T16:24:53.577Z,5.87
2022-12-01T16:27:29.677Z,5.82
2022-12-01T16:30:02.926Z,5.82
2022-12-01T16:32:39.538Z,6.02
2022-12-01T16:35:30.371Z,5.99
2022-12-01T16:37:58.552Z,6.12
2022-12-01T16:40:25.712Z,6.12
2022-12-01T16:42:52.621Z,6.14
2022-12-01T16:45:20.600Z,6.22
2022-12-01T16:47:49.387Z,6.24
2022-12-01T16:50:19.384Z,6.31
2022-12-01T16:52:46.605Z,6.32
2022-12-01T16:55:42.509Z,6.18
2022-12-01T16:58:09.433Z,6.17
2022-12-01T17:00:36.553Z,6.21
2022-12-01T17:03:04.427Z,6.28
2022-12-01T17:05:32.402Z,6.25
2022-12-01T17:07:59.351Z,6.22
2022-12-01T17:10:26.233Z,6.24
2022-12-01T17:12:53.169Z,6.19
2022-12-01T17:15:20.151Z,6.18
2022-12-01T17:17:47.133Z,6.11
2022-12-01T17:20:14.450Z,6.17
2022-12-01T17:22:41.494Z,6.13
2022-12-01T17:25:09.747Z,6.20
2022-12-01T17:27:38.577Z,6.20
2022-12-01T17:30:07.795Z,6.21
2022-12-01T17:32:34.723Z,6.37
2022-12-01T17:35:01.646Z,6.26
2022-12-01T17:37:28.818Z,6.06
2022-12-01T17:39:55.770Z,6.19
2022-12-01T17:42:22.690Z,5.91
2022-12-01T17:44:49.834Z,6.14
2022-12-01T17:47:16.979Z,6.14
2022-12-01T17:49:43.952Z,6.00
2022-12-01T17:52:10.976Z,6.07
2022-12-01T17:54:38.288Z,6.15
2022-12-01T17:57:07.283Z,6.24
2022-12-01T17:59:36.752Z,6.12
2022-12-01T18:02:04.711Z,6.26
2022-12-01T18:04:31.841Z,6.09
2022-12-01T18:06:59.262Z,6.13
2022-12-01T18:09:26.478Z,6.09
2022-12-01T18:11:56.343Z,6.14
2022-12-01T18:14:25.050Z,6.00
2022-12-01T18:16:52.780Z,5.88
2022-12-01T18:19:20.557Z,5.91
2022-12-01T18:21:47.610Z,6.01
2022-12-01T18:24:14.545Z,6.04
2022-12-01T18:26:41.500Z,5.93
2022-12-01T18:29:15.975Z,5.91
2022-12-01T18:31:43.545Z,6.12
2022-12-01T18:34:11.757Z,6.09
2022-12-01T18:36:40.752Z,6.03
2022-12-01T18:39:09.421Z,5.99
2022-12-01T18:41:37.138Z,6.06
2022-12-01T18:44:04.484Z,6.02
2022-12-01T18:46:32.097Z,5.95
2022-12-01T18:49:02.948Z,5.82
2022-12-01T18:51:32.880Z,5.91
2022-12-01T18:54:02.322Z,5.89
2022-12-01T18:56:30.265Z,5.81
2022-12-01T18:59:00.872Z,5.92
2022-12-01T19:01:34.267Z,5.84
2022-12-01T19:04:01.850Z,5.88
2022-12-01T19:06:29.822Z,5.83
2022-12-01T19:09:00.170Z,5.77
2022-12-01T19:11:27.861Z,5.82
2022-12-01T19:13:56.692Z,5.74
2022-12-01T19:16:24.386Z,5.81
2022-12-01T19:18:51.536Z,5.90
2022-12-01T19:21:20.029Z,5.81
2022-12-01T19:23:47.852Z,5.95
2022-12-01T19:26:20.508Z,5.97
2022-12-01T19:28:47.880Z,5.88
2022-12-01T19:31:20.157Z,5.85
2022-12-01T19:33:47.329Z,5.82
2022-12-01T19:36:24.455Z,5.87
2022-12-01T19:38:53.314Z,5.83
2022-12-01T19:41:20.814Z,5.83
2022-12-01T19:43:48.084Z,5.90
2022-12-01T19:46:19.078Z,5.77
2022-12-01T19:48:47.488Z,5.89
2022-12-01T19:51:28.417Z,6.03
2022-12-01T19:53:55.699Z,6.05
2022-12-01T19:56:23.574Z,5.98
2022-12-01T19:58:50.798Z,5.92
2022-12-01T20:01:18.918Z,5.92
2022-12-01T20:03:49.077Z,5.83
2022-12-01T20:06:20.624Z,5.83
2022-12-01T20:08:48.060Z,5.86
2022-12-01T20:11:15.600Z,5.94
2022-12-01T20:13:44.450Z,5.84
2022-12-01T20:16:18.692Z,5.80
2022-12-01T20:18:46.442Z,5.87
2022-12-01T20:21:25.528Z,5.77
2022-12-01T20:24:20.160Z,5.99
2022-12-01T20:26:51.853Z,5.92
2022-12-01T20:29:26.359Z,5.79
2022-12-01T20:31:55.686Z,5.83
2022-12-01T20:34:33.531Z,5.64
2022-12-01T20:37:00.598Z,5.71
2022-12-01T20:39:28.500Z,5.65
2022-12-01T20:41:55.395Z,5.70
2022-12-01T20:44:22.292Z,5.77
2022-12-01T20:46:49.200Z,5.51
2022-12-01T20:49:17.522Z,5.74
2022-12-01T20:51:45.093Z,5.70
2022-12-01T20:54:30.578Z,5.58
2022-12-01T20:56:58.402Z,5.66
2022-12-01T20:59:25.290Z,5.61
2022-12-01T21:01:52.204Z,5.36
2022-12-01T21:04:19.121Z,5.60
2022-12-01T21:06:46.281Z,5.65
2022-12-01T21:09:14.898Z,5.50
2022-12-01T21:12:07.981Z,5.52
2022-12-01T21:14:54.564Z,5.68
2022-12-01T21:17:39.578Z,5.59
2022-12-01T21:20:31.332Z,5.65
2022-12-01T21:23:16.981Z,5.54
2022-12-01T21:25:44.436Z,5.70
2022-12-01T21:28:24.095Z,5.60
2022-12-01T21:31:10.563Z,5.59
2022-12-01T21:33:39.073Z,5.56
2022-12-01T21:36:22.241Z,5.59
2022-12-01T21:38:55.772Z,5.47
2022-12-01T21:41:28.043Z,5.40
2022-12-01T21:44:01.400Z,5.34
2022-12-01T21:46:28.643Z,5.37
2022-12-01T21:48:55.732Z,5.40
2022-12-01T21:51:24.413Z,5.40
2022-12-01T21:53:53.298Z,5.38
2022-12-01T21:56:28.861Z,5.51
2022-12-01T21:59:34.378Z,5.43
2022-12-01T22:02:51.520Z,5.45
2022-12-01T22:05:27.951Z,5.52
2022-12-01T22:08:38.573Z,5.56
2022-12-01T22:11:18.663Z,5.55
2022-12-01T22:13:53.679Z,5.50
2022-12-01T22:16:31.698Z,5.64
2022-12-01T22:19:17.198Z,5.70
2022-12-01T22:21:57.996Z,5.56
2022-12-01T22:24:32.109Z,5.47
2022-12-01T22:27:39.655Z,5.47
2022-12-01T22:30:06.455Z,5.53
2022-12-01T22:32:54.152Z,5.39
2022-12-01T22:35:28.493Z,5.24
2022-12-01T22:38:21.406Z,5.39
2022-12-01T22:40:48.176Z,5.35
2022-12-01T22:43:17.812Z,5.35
2022-12-01T22:45:52.994Z,5.48
2022-12-01T22:48:40.049Z,5.39
2022-12-01T22:51:35.495Z,5.33
2022-12-01T22:54:20.451Z,5.38
2022-12-01T22:56:51.168Z,5.38
2022-12-01T22:59:23.184Z,5.37
2022-12-01T23:01:59.120Z,5.33
2022-12-01T23:04:28.080Z,5.34
2022-12-01T23:06:59.669Z,5.40
2022-12-01T23:09:41.557Z,5.17
2022-12-01T23:12:11.251Z,5.14
2022-12-01T23:14:51.044Z,5.32
2022-12-01T23:17:29.622Z,5.15
2022-12-01T23:20:11.143Z,4.98
2022-12-01T23:22:38.738Z,4.90
2022-12-01T23:25:20.256Z,4.95
2022-12-01T23:27:50.563Z,4.99
2022-12-01T23:30:21.037Z,4.93
2022-12-01T23:33:14.615Z,4.88
2022-12-01T23:36:06.977Z,4.87
2022-12-01T23:38:39.326Z,4.77
2022-12-01T23:41:44.955Z,4.75
2022-12-01T23:44:24.216Z,4.82
2022-12-01T23:46:53.852Z,4.86
2022-12-01T23:49:48.575Z,4.76
2022-12-01T23:52:21.172Z,4.86
2022-12-01T23:54:48.640Z,4.83
2022-12-01T23:57:24.802Z,4.89
